createdAt,value
2023-01-27T00:01:00.522Z,3.25
2023-01-27T00:03:27.586Z,2.97
2023-01-27T00:05:54.654Z,2.53
2023-01-27T00:08:21.747Z,2.70
2023-01-27T00:11:09.507Z,2.17
2023-01-27T00:13:36.543Z,2.03
2023-01-27T00:16:03.602Z,2.60
2023-01-27T00:18:30.576Z,2.38
2023-01-27T00:21:18.670Z,2.75
2023-01-27T00:24:04.500Z,2.97
2023-01-27T00:26:31.553Z,2.83
2023-01-27T00:28:58.542Z,2.38
2023-01-27T00:31:44.021Z,2.95
2023-01-27T00:34:11.148Z,2.45
2023-01-27T00:36:40.814Z,2.15
2023-01-27T00:39:10.252Z,2.30
2023-01-27T00:41:37.766Z,2.50
2023-01-27T00:44:05.918Z,2.65
2023-01-27T00:46:34.148Z,2.40
2023-01-27T00:49:01.591Z,2.90
2023-01-27T00:51:28.803Z,2.00
2023-01-27T00:53:56.133Z,2.42
2023-01-27T00:56:23.227Z,3.10
2023-01-27T00:58:50.361Z,2.50
2023-01-27T01:01:18.728Z,2.38
2023-01-27T01:03:46.280Z,1.98
2023-01-27T01:06:17.750Z,2.63
2023-01-27T01:08:46.561Z,2.00
2023-01-27T01:11:16.218Z,2.40
2023-01-27T01:13:44.405Z,2.60
2023-01-27T01:16:17.536Z,1.90
2023-01-27T01:18:44.951Z,2.70
2023-01-27T01:21:12.795Z,1.95
2023-01-27T01:23:42.346Z,1.98
2023-01-27T01:26:11.735Z,2.53
2023-01-27T01:28:39.616Z,2.00
2023-01-27T01:31:12.583Z,2.38
2023-01-27T01:33:40.162Z,2.35
2023-01-27T01:36:09.775Z,2.65
2023-01-27T01:38:37.199Z,3.05
2023-01-27T01:41:06.169Z,1.80
2023-01-27T01:43:33.339Z,2.03
2023-01-27T01:46:01.614Z,1.77
2023-01-27T01:48:54.925Z,2.03
2023-01-27T01:51:33.846Z,2.10
2023-01-27T01:54:09.600Z,2.33
2023-01-27T01:56:46.766Z,1.65
2023-01-27T01:59:19.495Z,2.10
2023-01-27T02:01:46.957Z,1.38
2023-01-27T02:04:19.528Z,1.85
2023-01-27T02:07:02.531Z,1.73
2023-01-27T02:09:29.936Z,1.77
2023-01-27T02:11:59.310Z,2.20
2023-01-27T02:14:26.595Z,2.60
2023-01-27T02:16:56.545Z,1.98
2023-01-27T02:20:19.982Z,2.40
2023-01-27T02:23:03.715Z,1.90
2023-01-27T02:25:38.059Z,1.88
2023-01-27T02:28:07.971Z,2.30
2023-01-27T02:30:35.624Z,1.90
2023-01-27T02:33:10.998Z,1.77
2023-01-27T02:36:05.297Z,2.35
2023-01-27T02:38:55.897Z,2.40
2023-01-27T02:41:38.312Z,2.05
2023-01-27T02:44:05.761Z,2.45
2023-01-27T02:46:33.443Z,2.13
2023-01-27T02:49:00.679Z,2.33
2023-01-27T02:51:27.937Z,1.63
2023-01-27T02:53:55.011Z,2.33
2023-01-27T02:56:22.907Z,2.15
2023-01-27T02:58:49.861Z,2.25
2023-01-27T03:01:24.406Z,2.05
2023-01-27T03:03:52.531Z,2.05
2023-01-27T03:06:20.670Z,2.10
2023-01-27T03:08:48.267Z,1.70
2023-01-27T03:11:36.146Z,2.20
2023-01-27T03:14:04.965Z,1.95
2023-01-27T03:16:50.725Z,2.03
2023-01-27T03:19:18.543Z,2.22
2023-01-27T03:21:45.543Z,1.95
2023-01-27T03:24:16.365Z,2.20
2023-01-27T03:26:44.178Z,2.08
2023-01-27T03:29:33.325Z,1.88
2023-01-27T03:32:01.498Z,2.47
2023-01-27T03:34:31.067Z,2.50
2023-01-27T03:37:27.574Z,2.33
2023-01-27T03:40:14.957Z,2.65
2023-01-27T03:43:00.446Z,2.83
2023-01-27T03:45:46.191Z,2.70
2023-01-27T03:48:14.281Z,2.65
2023-01-27T03:50:53.581Z,2.80
2023-01-27T03:53:21.153Z,2.33
2023-01-27T03:55:48.472Z,3.22
2023-01-27T03:58:23.103Z,2.80
2023-01-27T04:00:58.551Z,2.38
2023-01-27T04:03:46.088Z,3.55
2023-01-27T04:06:34.549Z,2.80
2023-01-27T04:09:02.637Z,2.72
2023-01-27T04:11:49.204Z,3.13
2023-01-27T04:14:16.721Z,3.05
2023-01-27T04:16:44.303Z,3.28
2023-01-27T04:19:12.640Z,3.28
2023-01-27T04:21:41.815Z,3.65
2023-01-27T04:24:22.606Z,3.60
2023-01-27T04:26:56.026Z,4.00
2023-01-27T04:29:25.852Z,4.60
2023-01-27T04:31:53.207Z,4.32
2023-01-27T04:34:20.837Z,3.78
2023-01-27T04:36:48.743Z,4.45
2023-01-27T04:39:18.088Z,3.92
2023-01-27T04:41:45.771Z,4.53
2023-01-27T04:44:13.316Z,5.78
2023-01-27T04:46:40.947Z,4.20
2023-01-27T04:49:08.319Z,5.15
2023-01-27T04:51:36.607Z,4.43
2023-01-27T04:54:05.537Z,4.78
2023-01-27T04:56:38.339Z,4.75
2023-01-27T04:59:12.177Z,4.63
2023-01-27T05:01:39.484Z,5.72
2023-01-27T05:04:06.580Z,7.03
2023-01-27T05:06:33.992Z,5.32
2023-01-27T05:09:01.548Z,5.38
2023-01-27T05:11:28.552Z,5.97
2023-01-27T05:13:55.545Z,6.47
2023-01-27T05:16:24.454Z,6.32
2023-01-27T05:18:53.345Z,6.13
2023-01-27T05:21:22.838Z,7.07
2023-01-27T05:23:50.459Z,6.70
2023-01-27T05:26:21.458Z,7.18
2023-01-27T05:28:49.888Z,6.82
2023-01-27T05:31:23.274Z,7.07
2023-01-27T05:33:53.468Z,7.03
2023-01-27T05:36:23.523Z,6.93
2023-01-27T05:38:54.718Z,7.18
2023-01-27T05:41:21.976Z,8.38
2023-01-27T05:43:53.521Z,7.68
2023-01-27T05:46:23.101Z,8.35
2023-01-27T05:48:56.837Z,7.97
2023-01-27T05:51:25.634Z,7.38
2023-01-27T05:53:54.211Z,8.10
2023-01-27T05:56:22.551Z,8.00
2023-01-27T05:58:49.828Z,8.20
2023-01-27T06:01:19.960Z,8.68
2023-01-27T06:03:47.833Z,9.13
2023-01-27T06:06:17.309Z,8.65
2023-01-27T06:08:45.758Z,8.50
2023-01-27T06:11:13.365Z,9.80
2023-01-27T06:13:41.426Z,9.32
2023-01-27T06:16:11.174Z,8.85
2023-01-27T06:18:38.846Z,8.27
2023-01-27T06:21:08.361Z,8.98
2023-01-27T06:23:35.527Z,8.35
2023-01-27T06:26:07.003Z,8.32
2023-01-27T06:28:33.969Z,7.57
2023-01-27T06:31:21.121Z,7.10
2023-01-27T06:33:48.592Z,6.50
2023-01-27T06:36:18.598Z,5.93
2023-01-27T06:38:46.943Z,6.07
2023-01-27T06:41:14.309Z,6.00
2023-01-27T06:43:41.247Z,5.13
2023-01-27T06:46:08.315Z,6.30
2023-01-27T06:48:35.327Z,5.65
2023-01-27T06:51:02.434Z,5.82
2023-01-27T06:53:29.668Z,6.43
2023-01-27T06:55:58.393Z,6.85
2023-01-27T06:58:25.760Z,6.72
2023-01-27T07:00:53.793Z,6.75
2023-01-27T07:03:21.492Z,7.28
2023-01-27T07:05:48.618Z,7.95
2023-01-27T07:08:15.879Z,7.07
2023-01-27T07:10:42.911Z,7.57
2023-01-27T07:13:12.057Z,8.23
2023-01-27T07:15:39.914Z,7.95
2023-01-27T07:18:07.507Z,8.57
2023-01-27T07:20:34.995Z,8.48
2023-01-27T07:23:05.015Z,7.57
2023-01-27T07:25:33.960Z,8.25
2023-01-27T07:28:02.829Z,7.97
2023-01-27T07:30:30.177Z,7.90
2023-01-27T07:33:06.722Z,8.23
2023-01-27T07:35:36.752Z,8.55
2023-01-27T07:38:05.522Z,8.13
2023-01-27T07:40:32.582Z,8.82
2023-01-27T07:43:00.812Z,9.55
2023-01-27T07:45:29.246Z,9.73
2023-01-27T07:48:05.422Z,10.55
2023-01-27T07:50:32.797Z,10.90
2023-01-27T07:53:02.530Z,8.20
2023-01-27T07:55:30.284Z,10.00
2023-01-27T07:57:58.252Z,10.10
2023-01-27T08:00:25.891Z,10.18
2023-01-27T08:02:57.288Z,11.00
2023-01-27T08:05:25.284Z,10.48
2023-01-27T08:07:54.112Z,11.05
2023-01-27T08:10:21.889Z,10.18
2023-01-27T08:12:50.455Z,10.63
2023-01-27T08:15:19.112Z,9.77
2023-01-27T08:17:54.338Z,10.95
2023-01-27T08:20:22.959Z,9.45
2023-01-27T08:22:53.016Z,10.27
2023-01-27T08:25:20.015Z,10.13
2023-01-27T08:27:52.318Z,9.68
2023-01-27T08:30:19.943Z,8.55
2023-01-27T08:32:47.970Z,9.45
2023-01-27T08:35:14.988Z,9.45
2023-01-27T08:37:41.973Z,9.93
2023-01-27T08:40:09.912Z,9.45
2023-01-27T08:42:38.648Z,10.38
2023-01-27T08:45:06.165Z,9.88
2023-01-27T08:47:33.791Z,9.43
2023-01-27T08:50:00.765Z,8.82
2023-01-27T08:52:30.836Z,9.10
2023-01-27T08:54:58.820Z,9.98
2023-01-27T08:57:26.108Z,9.50
2023-01-27T08:59:54.278Z,10.20
2023-01-27T09:02:24.539Z,9.13
2023-01-27T09:04:52.008Z,8.93
2023-01-27T09:07:19.744Z,8.55
2023-01-27T09:09:48.042Z,9.52
2023-01-27T09:12:16.081Z,8.48
2023-01-27T09:14:43.305Z,8.52
2023-01-27T09:17:10.328Z,8.77
2023-01-27T09:19:37.478Z,8.43
2023-01-27T09:22:05.925Z,7.90
2023-01-27T09:24:32.864Z,8.25
2023-01-27T09:27:01.102Z,8.75
2023-01-27T09:29:29.396Z,8.13
2023-01-27T09:31:56.987Z,9.05
2023-01-27T09:34:25.461Z,8.82
2023-01-27T09:36:56.546Z,9.55
2023-01-27T09:39:24.512Z,9.07
2023-01-27T09:42:18.049Z,8.98
2023-01-27T09:45:10.469Z,8.48
2023-01-27T09:50:26.906Z,7.85
2023-01-27T09:53:15.006Z,10.70
2023-01-27T09:56:20.508Z,12.60
2023-01-27T09:59:12.135Z,9.75
2023-01-27T10:02:05.275Z,8.23
2023-01-27T10:05:22.569Z,7.72
2023-01-27T10:08:18.613Z,7.68
2023-01-27T10:11:06.658Z,7.55
2023-01-27T10:13:53.832Z,8.02
2023-01-27T10:17:00.610Z,7.20
2023-01-27T10:19:42.002Z,7.53
2023-01-27T10:22:31.238Z,8.90
2023-01-27T10:25:03.789Z,7.10
2023-01-27T10:27:37.335Z,8.02
2023-01-27T10:30:25.766Z,7.88
2023-01-27T10:33:03.437Z,7.95
2023-01-27T10:35:48.090Z,7.25
2023-01-27T10:38:39.941Z,8.50
2023-01-27T10:41:25.000Z,7.90
2023-01-27T10:44:16.010Z,8.88
2023-01-27T10:47:01.546Z,8.18
2023-01-27T10:49:53.669Z,8.70
2023-01-27T10:52:30.602Z,8.90
2023-01-27T10:55:22.078Z,7.95
2023-01-27T10:58:03.637Z,6.85
2023-01-27T11:00:57.858Z,7.78
2023-01-27T11:03:42.699Z,7.47
2023-01-27T11:06:17.697Z,11.20
2023-01-27T11:08:52.231Z,17.15
2023-01-27T11:11:43.007Z,7.80
2023-01-27T11:14:17.244Z,8.30
2023-01-27T11:16:50.219Z,8.05
2023-01-27T11:19:37.288Z,6.45
2023-01-27T11:22:14.773Z,6.05
2023-01-27T11:24:55.725Z,6.75
2023-01-27T11:28:00.356Z,6.82
2023-01-27T11:30:38.531Z,7.30
2023-01-27T11:33:11.959Z,7.25
2023-01-27T11:35:39.039Z,7.22
2023-01-27T11:38:15.423Z,8.00
2023-01-27T11:40:43.846Z,6.65
2023-01-27T11:43:19.795Z,7.00
2023-01-27T11:45:47.929Z,7.25
2023-01-27T11:48:18.239Z,6.72
2023-01-27T11:50:46.448Z,7.03
2023-01-27T11:53:20.697Z,6.80
2023-01-27T11:55:56.746Z,7.18
2023-01-27T11:58:31.661Z,7.03
2023-01-27T12:01:05.676Z,5.78
2023-01-27T12:03:53.918Z,6.45
2023-01-27T12:06:53.595Z,6.03
2023-01-27T12:09:41.893Z,6.03
2023-01-27T12:12:14.663Z,6.53
2023-01-27T12:14:55.025Z,6.30
2023-01-27T12:17:47.714Z,6.60
2023-01-27T12:20:41.953Z,5.95
2023-01-27T12:23:26.422Z,5.93
2023-01-27T12:25:57.446Z,5.95
2023-01-27T12:28:29.444Z,5.40
2023-01-27T12:31:13.849Z,6.07
2023-01-27T12:33:45.693Z,5.43
2023-01-27T12:36:17.268Z,6.10
2023-01-27T12:39:00.411Z,6.20
2023-01-27T12:41:36.495Z,6.32
2023-01-27T12:44:18.452Z,6.88
2023-01-27T12:47:14.658Z,5.32
2023-01-27T12:49:44.765Z,5.80
2023-01-27T12:52:20.052Z,5.53
2023-01-27T12:54:47.601Z,5.25
2023-01-27T12:57:19.316Z,5.28
2023-01-27T12:59:51.243Z,5.65
2023-01-27T13:02:24.106Z,6.35
2023-01-27T13:05:02.386Z,5.70
2023-01-27T13:07:39.316Z,5.85
2023-01-27T13:10:18.278Z,6.20
2023-01-27T13:12:57.484Z,6.35
2023-01-27T13:15:28.799Z,5.40
2023-01-27T13:18:00.440Z,6.60
2023-01-27T13:20:37.930Z,6.18
2023-01-27T13:23:19.794Z,6.32
2023-01-27T13:26:05.218Z,7.20
2023-01-27T13:28:51.719Z,7.50
2023-01-27T13:31:49.534Z,6.75
2023-01-27T13:34:38.643Z,7.05
2023-01-27T13:37:43.539Z,6.82
2023-01-27T13:40:20.975Z,5.78
2023-01-27T13:43:12.805Z,5.05
2023-01-27T13:45:57.505Z,5.00
2023-01-27T13:48:32.898Z,6.10
2023-01-27T13:51:21.088Z,5.53
2023-01-27T13:54:00.157Z,5.78
2023-01-27T13:56:53.283Z,4.55
2023-01-27T13:59:45.080Z,5.35
2023-01-27T14:02:39.519Z,4.70
2023-01-27T14:05:13.166Z,5.22
2023-01-27T14:08:02.214Z,5.68
2023-01-27T14:10:57.966Z,5.95
2023-01-27T14:13:58.629Z,5.10
2023-01-27T14:16:53.132Z,4.80
2023-01-27T14:19:31.920Z,4.20
2023-01-27T14:22:23.854Z,5.53
2023-01-27T14:25:04.041Z,4.95
2023-01-27T14:28:00.864Z,4.75
2023-01-27T14:30:36.418Z,4.70
2023-01-27T14:33:50.958Z,5.20
2023-01-27T14:36:31.555Z,4.65
2023-01-27T14:39:04.641Z,5.15
2023-01-27T14:41:54.809Z,5.03
2023-01-27T14:44:44.101Z,5.32
2023-01-27T14:47:49.471Z,4.22
2023-01-27T14:50:19.545Z,8.85
2023-01-27T14:53:05.841Z,7.07
2023-01-27T14:56:01.561Z,5.20
2023-01-27T14:58:41.606Z,5.13
2023-01-27T15:01:27.831Z,5.03
2023-01-27T15:04:19.515Z,4.72
2023-01-27T15:06:52.285Z,4.63
2023-01-27T15:09:48.599Z,4.95
2023-01-27T15:12:46.067Z,5.00
2023-01-27T15:15:32.461Z,6.20
2023-01-27T15:18:14.530Z,5.07
2023-01-27T15:20:50.495Z,5.88
2023-01-27T15:23:36.126Z,6.85
2023-01-27T15:26:07.038Z,7.10
2023-01-27T15:28:38.921Z,5.47
2023-01-27T15:31:15.365Z,6.40
2023-01-27T15:33:56.121Z,5.13
2023-01-27T15:36:32.182Z,6.45
2023-01-27T15:39:20.252Z,4.85
2023-01-27T15:42:04.039Z,4.90
2023-01-27T15:44:57.262Z,5.20
2023-01-27T15:47:28.996Z,4.78
2023-01-27T15:50:29.436Z,4.70
2023-01-27T15:53:02.623Z,5.38
2023-01-27T15:55:36.564Z,4.63
2023-01-27T15:58:28.775Z,4.25
2023-01-27T16:00:57.741Z,3.90
2023-01-27T16:03:27.491Z,4.63
2023-01-27T16:06:17.513Z,4.38
2023-01-27T16:09:01.921Z,4.95
2023-01-27T16:11:28.856Z,5.13
2023-01-27T16:14:19.947Z,4.88
2023-01-27T16:17:09.560Z,4.28
2023-01-27T16:19:47.887Z,5.65
2023-01-27T16:22:19.652Z,5.75
2023-01-27T16:25:13.133Z,5.68
2023-01-27T16:27:52.711Z,5.38
2023-01-27T16:30:21.483Z,6.03
2023-01-27T16:33:19.102Z,5.80
2023-01-27T16:35:51.794Z,6.53
2023-01-27T16:38:32.336Z,5.65
2023-01-27T16:41:05.769Z,4.28
2023-01-27T16:43:43.035Z,4.32
2023-01-27T16:46:24.631Z,4.93
2023-01-27T16:48:53.018Z,4.95
2023-01-27T16:51:23.961Z,4.90
2023-01-27T16:53:54.932Z,4.20
2023-01-27T16:56:25.130Z,4.43
2023-01-27T16:58:58.207Z,4.30
2023-01-27T17:01:46.910Z,4.40
2023-01-27T17:04:24.654Z,5.10
2023-01-27T17:06:56.321Z,4.28
2023-01-27T17:09:29.527Z,3.85
2023-01-27T17:11:56.452Z,4.32
2023-01-27T17:14:32.925Z,3.88
2023-01-27T17:17:03.429Z,3.65
2023-01-27T17:19:36.018Z,3.72
2023-01-27T17:22:22.851Z,3.95
2023-01-27T17:24:56.520Z,3.58
2023-01-27T17:27:28.038Z,4.25
2023-01-27T17:30:01.809Z,4.00
2023-01-27T17:32:34.215Z,3.53
2023-01-27T17:35:08.655Z,4.00
2023-01-27T17:37:43.528Z,3.70
2023-01-27T17:40:16.487Z,3.63
2023-01-27T17:42:44.041Z,3.90
2023-01-27T17:45:29.461Z,3.75
2023-01-27T17:48:00.763Z,4.20
2023-01-27T17:50:37.339Z,3.20
2023-01-27T17:53:10.273Z,3.72
2023-01-27T17:55:37.751Z,3.95
2023-01-27T17:58:17.018Z,4.00
2023-01-27T18:00:45.379Z,3.85
2023-01-27T18:03:30.012Z,3.75
2023-01-27T18:05:57.374Z,3.53
2023-01-27T18:08:24.675Z,3.72
2023-01-27T18:10:52.497Z,4.60
2023-01-27T18:13:19.594Z,4.78
2023-01-27T18:15:51.087Z,4.57
2023-01-27T18:18:24.671Z,4.55
2023-01-27T18:20:57.522Z,5.22
2023-01-27T18:23:28.059Z,4.60
2023-01-27T18:26:21.104Z,4.32
2023-01-27T18:28:59.147Z,4.53
2023-01-27T18:31:28.013Z,5.10
2023-01-27T18:33:56.836Z,5.45
2023-01-27T18:36:25.476Z,5.05
2023-01-27T18:38:52.873Z,5.15
2023-01-27T18:41:27.441Z,5.22
2023-01-27T18:43:55.266Z,4.80
2023-01-27T18:46:22.587Z,5.43
2023-01-27T18:48:49.604Z,5.60
2023-01-27T18:51:19.304Z,5.68
2023-01-27T18:53:46.346Z,5.10
2023-01-27T18:56:13.398Z,4.82
2023-01-27T18:58:41.233Z,4.65
2023-01-27T19:01:21.675Z,4.63
2023-01-27T19:03:51.926Z,4.28
2023-01-27T19:06:19.636Z,4.55
2023-01-27T19:08:49.100Z,4.30
2023-01-27T19:11:16.208Z,4.47
2023-01-27T19:13:45.021Z,4.50
2023-01-27T19:16:18.678Z,4.88
2023-01-27T19:18:45.671Z,4.32
2023-01-27T19:21:16.923Z,4.10
2023-01-27T19:23:45.095Z,4.77
2023-01-27T19:26:19.375Z,3.97
2023-01-27T19:28:52.419Z,5.00
2023-01-27T19:31:19.829Z,4.88
2023-01-27T19:33:47.689Z,4.57
2023-01-27T19:36:29.109Z,4.40
2023-01-27T19:39:17.275Z,4.90
2023-01-27T19:41:47.693Z,4.55
2023-01-27T19:44:15.664Z,5.30
2023-01-27T19:46:43.221Z,5.22
2023-01-27T19:49:17.683Z,4.90
2023-01-27T19:51:45.136Z,5.65
2023-01-27T19:54:12.384Z,4.78
2023-01-27T19:56:39.306Z,5.18
2023-01-27T19:59:06.246Z,5.60
2023-01-27T20:01:33.246Z,5.43
2023-01-27T20:04:00.274Z,6.45
2023-01-27T20:06:31.736Z,5.55
2023-01-27T20:09:00.287Z,5.57
2023-01-27T20:11:42.875Z,6.15
2023-01-27T20:14:19.458Z,5.10
2023-01-27T20:16:47.529Z,5.35
2023-01-27T20:19:15.436Z,5.78
2023-01-27T20:21:44.081Z,5.50
2023-01-27T20:24:16.793Z,5.97
2023-01-27T20:26:45.019Z,6.53
2023-01-27T20:29:12.150Z,5.43
2023-01-27T20:31:41.138Z,5.40
2023-01-27T20:34:08.091Z,5.18
2023-01-27T20:36:36.075Z,5.25
2023-01-27T20:39:05.810Z,4.70
2023-01-27T20:41:33.359Z,5.30
2023-01-27T20:44:00.729Z,4.85
2023-01-27T20:46:29.477Z,4.80
2023-01-27T20:48:58.745Z,4.85
2023-01-27T20:51:26.278Z,4.60
2023-01-27T20:53:53.746Z,5.40
2023-01-27T20:56:23.292Z,5.22
2023-01-27T20:58:50.915Z,4.63
2023-01-27T21:01:21.020Z,5.35
2023-01-27T21:03:49.016Z,4.85
2023-01-27T21:06:17.826Z,5.40
2023-01-27T21:08:45.438Z,4.95
2023-01-27T21:11:13.175Z,4.65
2023-01-27T21:13:41.885Z,4.60
2023-01-27T21:16:09.813Z,4.28
2023-01-27T21:18:37.172Z,4.35
2023-01-27T21:21:04.990Z,4.53
2023-01-27T21:23:33.682Z,4.88
2023-01-27T21:26:05.933Z,4.88
2023-01-27T21:28:34.090Z,4.60
2023-01-27T21:31:09.575Z,4.60
2023-01-27T21:33:39.053Z,5.03
2023-01-27T21:36:10.472Z,4.47
2023-01-27T21:38:39.465Z,4.65
2023-01-27T21:41:38.107Z,5.63
2023-01-27T21:44:26.420Z,4.78
2023-01-27T21:46:54.724Z,4.68
2023-01-27T21:49:22.019Z,4.15
2023-01-27T21:51:50.251Z,4.75
2023-01-27T21:54:18.026Z,4.75
2023-01-27T21:56:45.398Z,5.38
2023-01-27T21:59:12.749Z,5.15
2023-01-27T22:01:40.185Z,5.10
2023-01-27T22:04:07.351Z,4.40
2023-01-27T22:06:38.111Z,4.22
2023-01-27T22:09:05.058Z,4.85
2023-01-27T22:11:33.027Z,5.20
2023-01-27T22:14:00.192Z,5.30
2023-01-27T22:16:27.371Z,5.85
2023-01-27T22:18:54.415Z,4.85
2023-01-27T22:21:21.924Z,5.10
2023-01-27T22:23:49.001Z,5.30
2023-01-27T22:26:16.332Z,5.07
2023-01-27T22:28:44.917Z,5.18
2023-01-27T22:31:12.556Z,4.95
2023-01-27T22:33:39.590Z,5.45
2023-01-27T22:36:07.379Z,5.07
2023-01-27T22:38:38.294Z,5.80
2023-01-27T22:41:05.558Z,4.65
2023-01-27T22:43:32.651Z,5.45
2023-01-27T22:46:02.244Z,5.25
2023-01-27T22:48:29.667Z,5.25
2023-01-27T22:50:57.797Z,5.90
2023-01-27T22:53:25.431Z,5.97
2023-01-27T22:56:03.525Z,5.85
2023-01-27T22:58:31.548Z,4.80
2023-01-27T23:00:58.924Z,4.68
2023-01-27T23:03:26.217Z,5.35
2023-01-27T23:05:55.735Z,4.53
2023-01-27T23:08:23.051Z,5.03
2023-01-27T23:10:51.442Z,5.03
2023-01-27T23:13:18.586Z,4.57
2023-01-27T23:15:46.019Z,4.82
2023-01-27T23:18:13.441Z,4.60
2023-01-27T23:20:42.935Z,4.70
2023-01-27T23:23:10.945Z,4.50
2023-01-27T23:25:45.485Z,3.88
2023-01-27T23:28:13.844Z,4.25
2023-01-27T23:30:48.989Z,4.00
2023-01-27T23:33:17.619Z,4.30
2023-01-27T23:35:45.752Z,3.97
2023-01-27T23:38:30.340Z,4.82
2023-01-27T23:41:07.529Z,4.38
2023-01-27T23:43:34.715Z,4.00
2023-01-27T23:46:01.618Z,4.25
2023-01-27T23:48:29.140Z,4.20
2023-01-27T23:50:56.559Z,3.72
2023-01-27T23:53:23.498Z,4.18
2023-01-27T23:56:00.592Z,3.75
2023-01-27T23:58:27.964Z,4.05
